Forcalquier, France

06:55 CEST le 26 août 2016 (GMT +0200)
Place du Bourguet | | Change Station

Alt. 1801 ft 43.96 °N, 5.78 °E | Updated 2 minutes ago

Clear
Ciel dégagé
69.4 ° F
Paraît 69.4 ° F
N
0.0
Vent Variable Vent de Nord
Gusts 1.2 mph

Aujourd'hui
Haut(e) -- | Bas -- ° F
--% Risque de précip.
Hier
Haut(e) -- | Bas -- ° F
Precip. -- pouce
Pression 30.04 pouce
Visibilité -9999.0 Miles terrestres
Nuages
Point de rosée 64 ° F
Humidité 83%
Précipitations 0.00 pouce
Profondeur de la couche neigeuse Non disponible.
6:53 AM 8:22 PM
Dernier quartier, 38% visible
METAR LFMY 260430Z AUTO 00000KT CAVOK 17/12 Q1017 NOSIG
Pression 30.04 pouce
Visibilité -9999.0 Miles terrestres
Nuages
Point de rosée 64 ° F
Humidité 83%
Précipitations 0.00 pouce
Profondeur de la couche neigeuse Non disponible.
6:53 AM 8:22 PM
Dernier quartier, 38% visible
METAR LFMY 260430Z AUTO 00000KT CAVOK 17/12 Q1017 NOSIG

10-Day Weather Forecast

×

Almanac

Astronomie

Aug. 26, 2016 Lever Coucher
Temps réel
Crépuscule civil
Crépuscule nautique
Crépuscule astronomique
Lune
Durée de lumière visible
Longueur du jour
Tomorrow will be .
, % of the Moon is Illuminated

Extrêmes aujourd'hui

Country Highs Country Lows

Community

WunderPhotos

Upload Photos

1,935,056 Photos téléchargées !

WunderBlog® & News

Nearby

Qualité de l'air

  Qualité de l'air Indice de la qualité de l'air Polluant
Not available.

Épaisseur de neige

Station Depth Altitude

Activité sismique

Ville Distance Mag. Time & Date
Minimum magnitude displayed is 2.5.

Températures des eaux côtières

Lieu Température

Stations

Stations météo à proximité

Emplacement de la station Température Refroidissement éolien Point de rosée Humidité Vent Precip. Alt. Mise à jour Type